createdAt,value
2023-01-07T00:01:59.484Z,20.65
2023-01-07T00:04:26.715Z,20.71
2023-01-07T00:06:54.300Z,21.13
2023-01-07T00:09:21.456Z,20.92
2023-01-07T00:11:50.294Z,21.26
2023-01-07T00:14:17.286Z,21.37
2023-01-07T00:16:44.596Z,20.98
2023-01-07T00:19:13.908Z,20.40
2023-01-07T00:21:41.477Z,21.11
2023-01-07T00:24:11.483Z,20.73
2023-01-07T00:26:39.471Z,21.07
2023-01-07T00:29:08.860Z,20.38
2023-01-07T00:31:38.028Z,21.09
2023-01-07T00:34:06.151Z,21.06
2023-01-07T00:36:36.470Z,20.89
2023-01-07T00:39:05.315Z,21.02
2023-01-07T00:41:32.967Z,21.29
2023-01-07T00:44:00.611Z,21.94
2023-01-07T00:46:29.349Z,21.11
2023-01-07T00:48:57.061Z,20.19
2023-01-07T00:51:26.156Z,20.99
2023-01-07T00:53:53.477Z,19.85
2023-01-07T00:56:20.635Z,19.88
2023-01-07T00:58:48.381Z,21.01
2023-01-07T01:01:15.900Z,20.62
2023-01-07T01:03:44.580Z,20.78
2023-01-07T01:06:14.519Z,21.09
2023-01-07T01:08:42.863Z,20.75
2023-01-07T01:11:12.052Z,20.31
2023-01-07T01:13:40.321Z,20.86
2023-01-07T01:16:10.644Z,21.11
2023-01-07T01:18:38.432Z,20.85
2023-01-07T01:21:09.669Z,20.91
2023-01-07T01:23:37.273Z,21.59
2023-01-07T01:26:06.092Z,21.52
2023-01-07T01:28:34.328Z,21.00
2023-01-07T01:31:01.966Z,20.82
2023-01-07T01:33:29.831Z,20.76
2023-01-07T01:35:57.838Z,21.11
2023-01-07T01:38:25.961Z,21.26
2023-01-07T01:40:53.546Z,21.06
2023-01-07T01:43:31.386Z,21.63
2023-01-07T01:46:02.487Z,21.49
2023-01-07T01:48:30.877Z,21.29
2023-01-07T01:50:59.001Z,20.87
2023-01-07T01:53:30.837Z,20.17
2023-01-07T01:56:02.364Z,20.10
2023-01-07T01:58:34.662Z,20.91
2023-01-07T02:01:02.036Z,21.52
2023-01-07T02:03:32.857Z,20.18
2023-01-07T02:06:01.214Z,20.77
2023-01-07T02:08:30.328Z,21.08
2023-01-07T02:11:10.941Z,21.01
2023-01-07T02:13:51.551Z,20.87
2023-01-07T02:16:30.630Z,20.77
2023-01-07T02:19:17.125Z,19.76
2023-01-07T02:21:52.913Z,20.52
2023-01-07T02:24:57.121Z,20.80
2023-01-07T02:27:43.886Z,21.27
2023-01-07T02:30:42.083Z,20.48
2023-01-07T02:33:36.936Z,20.73
2023-01-07T02:36:20.237Z,21.30
2023-01-07T02:38:59.934Z,20.56
2023-01-07T02:41:45.612Z,20.69
2023-01-07T02:44:21.878Z,20.55
2023-01-07T02:46:55.310Z,20.92
2023-01-07T02:49:24.159Z,20.00
2023-01-07T02:51:51.522Z,20.02
2023-01-07T02:54:23.477Z,20.35
2023-01-07T02:57:22.285Z,20.33
2023-01-07T03:00:06.457Z,20.54
2023-01-07T03:02:57.711Z,20.25
2023-01-07T03:05:37.876Z,20.02
2023-01-07T03:08:20.627Z,19.74
2023-01-07T03:10:58.291Z,20.27
2023-01-07T03:13:30.002Z,19.53
2023-01-07T03:16:02.435Z,20.36
2023-01-07T03:18:32.843Z,20.70
2023-01-07T03:21:05.420Z,20.52
2023-01-07T03:23:36.116Z,20.62
2023-01-07T03:26:06.646Z,20.28
2023-01-07T03:28:36.607Z,19.85
2023-01-07T03:31:06.119Z,19.41
2023-01-07T03:33:39.913Z,20.04
2023-01-07T03:36:14.084Z,20.44
2023-01-07T03:38:45.006Z,19.87
2023-01-07T03:41:12.232Z,19.45
2023-01-07T03:43:39.447Z,20.43
2023-01-07T03:46:07.109Z,21.00
2023-01-07T03:48:34.415Z,20.33
2023-01-07T03:51:01.951Z,20.00
2023-01-07T03:53:31.177Z,19.79
2023-01-07T03:55:58.467Z,19.80
2023-01-07T03:58:25.655Z,19.82
2023-01-07T04:00:54.772Z,19.95
2023-01-07T04:03:22.294Z,19.99
2023-01-07T04:05:49.585Z,20.48
2023-01-07T04:08:17.179Z,20.22
2023-01-07T04:10:46.490Z,20.90
2023-01-07T04:13:13.702Z,21.12
2023-01-07T04:15:40.489Z,20.66
2023-01-07T04:18:07.918Z,20.77
2023-01-07T04:20:35.117Z,20.58
2023-01-07T04:23:02.908Z,20.49
2023-01-07T04:25:32.069Z,20.54
2023-01-07T04:28:01.593Z,20.51
2023-01-07T04:30:29.159Z,20.68
2023-01-07T04:32:56.543Z,20.36
2023-01-07T04:35:23.330Z,19.84
2023-01-07T04:37:50.608Z,19.86
2023-01-07T04:40:17.515Z,20.16
2023-01-07T04:42:44.689Z,20.79
2023-01-07T04:45:13.897Z,20.00
2023-01-07T04:47:41.039Z,20.25
2023-01-07T04:50:09.089Z,20.23
2023-01-07T04:52:37.187Z,20.10
2023-01-07T04:55:04.452Z,20.99
2023-01-07T04:57:31.594Z,20.31
2023-01-07T04:59:59.181Z,19.83
2023-01-07T05:02:27.813Z,19.64
2023-01-07T05:04:55.233Z,20.05
2023-01-07T05:07:22.635Z,20.08
2023-01-07T05:09:49.912Z,20.36
2023-01-07T05:12:17.239Z,20.59
2023-01-07T05:14:44.718Z,19.98
2023-01-07T05:17:12.251Z,19.60
2023-01-07T05:19:40.373Z,19.85
2023-01-07T05:22:07.711Z,19.69
2023-01-07T05:24:34.918Z,19.94
2023-01-07T05:27:02.285Z,19.81
2023-01-07T05:29:29.716Z,20.45
2023-01-07T05:31:56.857Z,20.98
2023-01-07T05:34:23.991Z,20.97
2023-01-07T05:36:53.172Z,19.81
2023-01-07T05:39:20.406Z,19.51
2023-01-07T05:41:47.689Z,20.64
2023-01-07T05:44:15.743Z,19.88
2023-01-07T05:46:43.196Z,20.13
2023-01-07T05:49:10.394Z,19.64
2023-01-07T05:51:38.022Z,19.97
2023-01-07T05:54:07.170Z,20.28
2023-01-07T05:56:34.560Z,20.55
2023-01-07T05:59:02.159Z,20.36
2023-01-07T06:01:29.523Z,20.54
2023-01-07T06:03:56.777Z,20.43
2023-01-07T06:06:24.281Z,19.84
2023-01-07T06:08:51.455Z,20.79
2023-01-07T06:11:20.534Z,19.64
2023-01-07T06:13:47.941Z,20.55
2023-01-07T06:16:14.950Z,19.86
2023-01-07T06:18:42.213Z,20.06
2023-01-07T06:21:09.978Z,20.42
2023-01-07T06:23:37.186Z,20.16
2023-01-07T06:26:04.667Z,20.53
2023-01-07T06:28:33.457Z,20.26
2023-01-07T06:31:00.793Z,20.00
2023-01-07T06:33:28.078Z,19.27
2023-01-07T06:35:55.885Z,20.28
2023-01-07T06:38:23.120Z,18.62
2023-01-07T06:40:50.514Z,20.21
2023-01-07T06:43:17.956Z,19.78
2023-01-07T06:45:46.992Z,19.91
2023-01-07T06:48:14.267Z,19.84
2023-01-07T06:50:41.674Z,20.08
2023-01-07T06:53:09.011Z,20.27
2023-01-07T06:55:36.530Z,19.53
2023-01-07T06:58:03.813Z,19.30
2023-01-07T07:00:31.188Z,19.65
2023-01-07T07:03:00.129Z,19.44
2023-01-07T07:05:29.118Z,19.26
2023-01-07T07:07:56.337Z,19.11
2023-01-07T07:10:23.121Z,19.41
2023-01-07T07:12:50.861Z,19.39
2023-01-07T07:15:18.428Z,18.64
2023-01-07T07:17:45.701Z,18.62
2023-01-07T07:20:14.040Z,18.98
2023-01-07T07:22:45.496Z,19.64
2023-01-07T07:25:12.974Z,19.50
2023-01-07T07:27:40.767Z,19.08
2023-01-07T07:30:09.430Z,19.29
2023-01-07T07:32:36.190Z,19.35
2023-01-07T07:35:04.029Z,19.96
2023-01-07T07:37:32.783Z,19.62
2023-01-07T07:40:00.644Z,19.82
2023-01-07T07:42:28.076Z,19.98
2023-01-07T07:44:55.335Z,19.86
2023-01-07T07:47:22.516Z,20.22
2023-01-07T07:49:50.057Z,20.25
2023-01-07T07:52:17.520Z,20.20
2023-01-07T07:54:46.220Z,20.21
2023-01-07T07:57:13.910Z,20.31
2023-01-07T07:59:42.258Z,20.46
2023-01-07T08:02:10.893Z,20.53
2023-01-07T08:04:38.765Z,20.64
2023-01-07T08:07:05.996Z,20.17
2023-01-07T08:09:33.179Z,19.63
2023-01-07T08:12:01.998Z,19.51
2023-01-07T08:14:29.367Z,19.88
2023-01-07T08:16:56.547Z,19.92
2023-01-07T08:19:24.005Z,19.41
2023-01-07T08:21:51.560Z,19.37
2023-01-07T08:24:18.824Z,20.01
2023-01-07T08:26:46.188Z,19.70
2023-01-07T08:29:14.929Z,19.30
2023-01-07T08:31:42.237Z,19.47
2023-01-07T08:34:09.715Z,19.00
2023-01-07T08:36:37.014Z,19.55
2023-01-07T08:39:04.480Z,19.20
2023-01-07T08:41:31.713Z,19.78
2023-01-07T08:43:58.459Z,19.62
2023-01-07T08:46:27.482Z,18.67
2023-01-07T08:48:55.034Z,19.48
2023-01-07T08:51:22.280Z,19.31
2023-01-07T08:53:50.145Z,19.15
2023-01-07T08:56:17.603Z,19.75
2023-01-07T08:58:44.404Z,18.82
2023-01-07T09:01:11.859Z,18.90
2023-01-07T09:03:41.042Z,18.68
2023-01-07T09:06:08.691Z,19.15
2023-01-07T09:08:36.114Z,19.44
2023-01-07T09:11:03.597Z,19.73
2023-01-07T09:13:31.061Z,19.16
2023-01-07T09:15:58.516Z,18.97
2023-01-07T09:18:26.099Z,19.27
2023-01-07T09:20:54.777Z,19.47
2023-01-07T09:23:21.967Z,19.53
2023-01-07T09:25:49.685Z,19.11
2023-01-07T09:28:17.819Z,19.58
2023-01-07T09:30:45.235Z,19.52
2023-01-07T09:33:12.744Z,19.77
2023-01-07T09:35:40.032Z,20.19
2023-01-07T09:38:08.869Z,19.26
2023-01-07T09:40:38.532Z,19.51
2023-01-07T09:43:14.276Z,19.09
2023-01-07T09:45:46.258Z,19.45
2023-01-07T09:48:20.946Z,19.63
2023-01-07T09:50:55.073Z,19.63
2023-01-07T09:53:30.561Z,19.95
2023-01-07T09:56:11.294Z,19.81
2023-01-07T09:58:42.518Z,19.81
2023-01-07T10:01:23.551Z,19.71
2023-01-07T10:04:05.315Z,20.07
2023-01-07T10:06:44.332Z,20.11
2023-01-07T10:09:29.018Z,20.21
2023-01-07T10:12:05.208Z,20.04
2023-01-07T10:14:49.640Z,19.84
2023-01-07T10:17:30.755Z,19.78
2023-01-07T10:20:04.896Z,19.87
2023-01-07T10:22:37.817Z,20.00
2023-01-07T10:25:17.589Z,20.20
2023-01-07T10:27:48.061Z,19.88
2023-01-07T10:30:20.713Z,20.05
2023-01-07T10:32:53.847Z,20.34
2023-01-07T10:35:23.531Z,20.57
2023-01-07T10:37:51.424Z,20.58
2023-01-07T10:40:34.150Z,20.34
2023-01-07T10:43:07.563Z,20.20
2023-01-07T10:45:53.530Z,20.46
2023-01-07T10:48:37.116Z,20.67
2023-01-07T10:51:37.391Z,20.67
2023-01-07T10:54:16.322Z,20.73
2023-01-07T10:56:48.474Z,20.23
2023-01-07T10:59:18.444Z,20.28
2023-01-07T11:01:52.161Z,20.01
2023-01-07T11:04:19.810Z,20.05
2023-01-07T11:06:52.711Z,20.37
2023-01-07T11:09:23.568Z,20.73
2023-01-07T11:11:55.873Z,20.73
2023-01-07T11:14:25.881Z,21.10
2023-01-07T11:16:57.672Z,20.95
2023-01-07T11:19:43.146Z,21.22
2023-01-07T11:22:29.508Z,21.26
2023-01-07T11:24:58.325Z,21.43
2023-01-07T11:27:29.306Z,21.37
2023-01-07T11:29:59.340Z,21.48
2023-01-07T11:32:29.956Z,21.92
2023-01-07T11:34:59.736Z,21.88
2023-01-07T11:37:38.726Z,22.52
2023-01-07T11:40:22.928Z,22.95
2023-01-07T11:42:54.378Z,23.09
2023-01-07T11:45:24.156Z,22.82
2023-01-07T11:48:06.995Z,23.40
2023-01-07T11:50:37.507Z,23.35
2023-01-07T11:53:22.084Z,23.90
2023-01-07T11:55:58.601Z,23.73
2023-01-07T11:58:30.911Z,24.06
2023-01-07T12:01:16.678Z,24.39
2023-01-07T12:03:45.738Z,24.70
2023-01-07T12:06:24.162Z,24.85
2023-01-07T12:08:55.847Z,24.56
2023-01-07T12:11:31.067Z,24.72
2023-01-07T12:14:06.634Z,24.38
2023-01-07T12:16:35.164Z,23.49
2023-01-07T12:19:21.437Z,23.10
2023-01-07T12:22:04.028Z,22.62
2023-01-07T12:24:49.577Z,22.65
2023-01-07T12:27:29.110Z,21.88
2023-01-07T12:30:15.392Z,21.64
2023-01-07T12:32:54.687Z,21.55
2023-01-07T12:35:27.755Z,21.43
2023-01-07T12:38:02.313Z,21.04
2023-01-07T12:40:34.364Z,22.06
2023-01-07T12:43:06.353Z,22.72
2023-01-07T12:45:42.697Z,22.69
2023-01-07T12:48:18.935Z,22.77
2023-01-07T12:50:49.935Z,22.87
2023-01-07T12:53:25.654Z,22.99
2023-01-07T12:55:57.258Z,23.00
2023-01-07T12:58:38.026Z,23.18
2023-01-07T13:01:19.933Z,23.56
2023-01-07T13:03:55.959Z,23.66
2023-01-07T13:06:46.360Z,23.82
2023-01-07T13:09:24.692Z,22.22
2023-01-07T13:11:56.015Z,22.69
2023-01-07T13:14:27.566Z,23.20
2023-01-07T13:17:02.067Z,23.06
2023-01-07T13:19:28.891Z,23.26
2023-01-07T13:21:56.012Z,23.31
2023-01-07T13:24:54.480Z,23.16
2023-01-07T13:27:28.310Z,23.50
2023-01-07T13:30:10.905Z,23.21
2023-01-07T13:32:49.787Z,23.31
2023-01-07T13:35:28.458Z,23.18
2023-01-07T13:38:10.661Z,23.03
2023-01-07T13:40:51.659Z,23.03
2023-01-07T13:43:35.963Z,22.76
2023-01-07T13:46:09.887Z,22.45
2023-01-07T13:48:41.213Z,22.48
2023-01-07T13:51:10.208Z,22.75
2023-01-07T13:53:46.949Z,22.84
2023-01-07T13:56:36.939Z,22.82
2023-01-07T13:59:04.664Z,21.75
2023-01-07T14:01:32.571Z,22.11
2023-01-07T14:04:34.063Z,21.80
2023-01-07T14:07:01.928Z,21.26
2023-01-07T14:09:37.944Z,20.49
2023-01-07T14:12:37.940Z,20.99
2023-01-07T14:15:28.133Z,21.10
2023-01-07T14:18:07.619Z,20.77
2023-01-07T14:20:45.904Z,20.84
2023-01-07T14:23:27.977Z,20.73
2023-01-07T14:26:07.493Z,20.54
2023-01-07T14:28:59.847Z,19.48
2023-01-07T14:31:29.117Z,19.11
2023-01-07T14:33:59.050Z,18.89
2023-01-07T14:37:06.280Z,18.48
2023-01-07T14:39:35.151Z,18.06
2023-01-07T14:42:28.468Z,18.13
2023-01-07T14:44:55.234Z,18.05
2023-01-07T14:47:52.976Z,18.55
2023-01-07T14:50:28.260Z,18.98
2023-01-07T14:53:28.268Z,18.75
2023-01-07T14:56:21.090Z,18.37
2023-01-07T14:59:14.143Z,18.13
2023-01-07T15:01:54.559Z,18.32
2023-01-07T15:04:58.655Z,18.60
2023-01-07T15:07:30.709Z,18.82
2023-01-07T15:10:02.202Z,18.75
2023-01-07T15:12:36.032Z,18.88
2023-01-07T15:15:11.204Z,18.88
2023-01-07T15:17:39.705Z,18.63
2023-01-07T15:20:08.406Z,19.21
2023-01-07T15:23:06.847Z,19.41
2023-01-07T15:25:44.679Z,19.17
2023-01-07T15:28:21.508Z,19.45
2023-01-07T15:30:59.212Z,18.95
2023-01-07T15:33:56.305Z,19.30
2023-01-07T15:36:24.102Z,19.40
2023-01-07T15:38:53.062Z,18.96
2023-01-07T15:41:27.420Z,19.23
2023-01-07T15:43:57.238Z,19.00
2023-01-07T15:46:26.995Z,19.16
2023-01-07T15:49:20.247Z,19.20
2023-01-07T15:51:49.624Z,18.81
2023-01-07T15:54:32.727Z,18.74
2023-01-07T15:57:04.566Z,18.92
2023-01-07T15:59:38.922Z,19.25
2023-01-07T16:02:23.323Z,19.07
2023-01-07T16:04:52.701Z,18.74
2023-01-07T16:07:23.628Z,19.44
2023-01-07T16:09:51.467Z,19.47
2023-01-07T16:12:34.465Z,19.62
2023-01-07T16:15:21.756Z,19.78
2023-01-07T16:17:52.917Z,19.78
2023-01-07T16:20:22.572Z,19.76
2023-01-07T16:22:50.436Z,19.83
2023-01-07T16:25:23.961Z,19.40
2023-01-07T16:27:51.550Z,19.50
2023-01-07T16:30:20.058Z,19.80
2023-01-07T16:32:48.140Z,19.75
2023-01-07T16:35:20.550Z,19.44
2023-01-07T16:37:49.762Z,19.03
2023-01-07T16:40:24.580Z,19.16
2023-01-07T16:42:52.436Z,19.16
2023-01-07T16:45:26.813Z,19.11
2023-01-07T16:48:02.324Z,18.94
2023-01-07T16:50:42.246Z,18.94
2023-01-07T16:53:28.595Z,18.85
2023-01-07T16:56:13.899Z,18.71
2023-01-07T16:58:47.335Z,18.93
2023-01-07T17:01:19.662Z,18.90
2023-01-07T17:03:53.422Z,18.67
2023-01-07T17:06:26.734Z,18.26
2023-01-07T17:08:56.386Z,17.43
2023-01-07T17:11:29.727Z,16.82
2023-01-07T17:13:57.073Z,16.78
2023-01-07T17:16:29.599Z,17.24
2023-01-07T17:18:58.642Z,17.23
2023-01-07T17:21:45.660Z,15.97
2023-01-07T17:24:41.970Z,16.96
2023-01-07T17:27:20.566Z,16.94
2023-01-07T17:29:48.521Z,17.12
2023-01-07T17:32:17.634Z,17.14
2023-01-07T17:34:44.900Z,16.75
2023-01-07T17:37:14.787Z,16.79
2023-01-07T17:39:42.255Z,16.94
2023-01-07T17:42:31.978Z,17.11
2023-01-07T17:44:59.128Z,16.96
2023-01-07T17:47:27.815Z,16.47
2023-01-07T17:49:54.690Z,17.12
2023-01-07T17:52:21.932Z,16.70
2023-01-07T17:54:49.134Z,16.88
2023-01-07T17:57:16.477Z,16.96
2023-01-07T17:59:43.751Z,16.94
2023-01-07T18:02:16.151Z,17.40
2023-01-07T18:04:45.056Z,17.25
2023-01-07T18:07:14.885Z,17.51
2023-01-07T18:09:42.302Z,17.10
2023-01-07T18:12:16.549Z,16.80
2023-01-07T18:14:43.735Z,17.18
2023-01-07T18:17:11.035Z,17.47
2023-01-07T18:19:38.407Z,17.20
2023-01-07T18:22:06.979Z,17.45
2023-01-07T18:24:34.166Z,17.38
2023-01-07T18:27:02.768Z,17.21
2023-01-07T18:29:30.149Z,17.07
2023-01-07T18:31:57.617Z,17.16
2023-01-07T18:34:25.455Z,16.92
2023-01-07T18:36:52.938Z,17.04
2023-01-07T18:39:21.710Z,16.89
2023-01-07T18:41:49.045Z,16.73
2023-01-07T18:44:16.512Z,16.99
2023-01-07T18:46:44.162Z,16.46
2023-01-07T18:49:12.560Z,16.36
2023-01-07T18:51:39.371Z,16.72
2023-01-07T18:54:07.563Z,16.52
2023-01-07T18:56:36.627Z,16.47
2023-01-07T18:59:03.904Z,16.17
2023-01-07T19:01:31.327Z,16.52
2023-01-07T19:03:58.626Z,16.71
2023-01-07T19:06:27.064Z,16.50
2023-01-07T19:08:54.458Z,16.29
2023-01-07T19:11:21.687Z,15.94
2023-01-07T19:13:50.250Z,15.92
2023-01-07T19:16:17.743Z,15.98
2023-01-07T19:18:44.773Z,16.17
2023-01-07T19:21:12.660Z,16.39
2023-01-07T19:23:40.507Z,16.36
2023-01-07T19:26:09.465Z,16.17
2023-01-07T19:28:37.019Z,16.34
2023-01-07T19:31:07.427Z,16.24
2023-01-07T19:33:35.208Z,16.06
2023-01-07T19:36:04.248Z,16.10
2023-01-07T19:38:31.709Z,16.33
2023-01-07T19:40:59.113Z,16.17
2023-01-07T19:43:26.323Z,16.14
2023-01-07T19:45:55.861Z,15.83
2023-01-07T19:48:24.768Z,15.41
2023-01-07T19:50:56.902Z,15.58
2023-01-07T19:53:24.599Z,15.64
2023-01-07T19:55:52.575Z,15.96
2023-01-07T19:58:19.772Z,15.85
2023-01-07T20:00:46.617Z,16.00
2023-01-07T20:03:14.581Z,16.19
2023-01-07T20:05:42.879Z,16.00
2023-01-07T20:08:10.011Z,15.67
2023-01-07T20:10:37.622Z,15.65
2023-01-07T20:13:04.340Z,15.78
2023-01-07T20:15:32.068Z,15.48
2023-01-07T20:17:59.019Z,15.78
2023-01-07T20:20:26.300Z,16.01
2023-01-07T20:22:55.728Z,16.06
2023-01-07T20:25:23.264Z,15.54
2023-01-07T20:27:49.950Z,16.02
2023-01-07T20:30:18.846Z,15.88
2023-01-07T20:32:46.430Z,16.18
2023-01-07T20:35:13.797Z,16.36
2023-01-07T20:37:40.955Z,16.60
2023-01-07T20:40:13.876Z,16.37
2023-01-07T20:42:42.169Z,16.67
2023-01-07T20:45:10.485Z,16.02
2023-01-07T20:47:43.794Z,15.82
2023-01-07T20:50:11.151Z,15.78
2023-01-07T20:52:38.413Z,15.57
2023-01-07T20:55:07.500Z,15.72
2023-01-07T20:57:36.271Z,15.76
2023-01-07T21:00:03.797Z,15.94
2023-01-07T21:02:31.419Z,15.95
2023-01-07T21:04:58.769Z,15.76
2023-01-07T21:07:26.012Z,16.18
2023-01-07T21:09:53.299Z,15.96
2023-01-07T21:12:20.118Z,15.79
2023-01-07T21:14:48.995Z,15.29
2023-01-07T21:17:16.777Z,15.62
2023-01-07T21:19:43.954Z,16.01
2023-01-07T21:22:11.380Z,15.68
2023-01-07T21:24:38.950Z,15.73
2023-01-07T21:27:05.796Z,15.76
2023-01-07T21:29:33.111Z,15.95
2023-01-07T21:32:02.034Z,15.58
2023-01-07T21:34:29.393Z,15.72
2023-01-07T21:36:56.539Z,15.74
2023-01-07T21:39:24.070Z,15.42
2023-01-07T21:41:51.360Z,15.45
2023-01-07T21:44:18.551Z,15.64
2023-01-07T21:46:45.979Z,15.78
2023-01-07T21:49:14.681Z,16.09
2023-01-07T21:51:43.536Z,15.66
2023-01-07T21:54:10.881Z,15.98
2023-01-07T21:56:38.374Z,16.10
2023-01-07T21:59:05.682Z,15.87
2023-01-07T22:01:33.452Z,15.50
2023-01-07T22:04:00.945Z,15.77
2023-01-07T22:06:31.798Z,15.90
2023-01-07T22:09:01.045Z,16.02
2023-01-07T22:11:28.291Z,15.98
2023-01-07T22:13:58.044Z,15.66
2023-01-07T22:16:27.339Z,15.96
2023-01-07T22:18:55.011Z,16.45
2023-01-07T22:21:22.265Z,15.95
2023-01-07T22:23:50.973Z,16.15
2023-01-07T22:26:19.299Z,16.25
2023-01-07T22:28:50.129Z,16.01
2023-01-07T22:31:20.645Z,16.10
2023-01-07T22:33:48.630Z,15.51
2023-01-07T22:36:19.133Z,14.99
2023-01-07T22:38:47.115Z,15.76
2023-01-07T22:41:15.846Z,16.07
2023-01-07T22:43:43.068Z,16.51
2023-01-07T22:46:16.264Z,16.45
2023-01-07T22:48:43.702Z,16.32
2023-01-07T22:51:16.572Z,16.39
2023-01-07T22:53:43.911Z,16.34
2023-01-07T22:56:12.291Z,16.98
2023-01-07T22:58:40.485Z,17.06
2023-01-07T23:01:11.459Z,17.15
2023-01-07T23:03:39.281Z,16.53
2023-01-07T23:06:07.348Z,16.73
2023-01-07T23:08:34.141Z,16.40
2023-01-07T23:11:00.912Z,16.90
2023-01-07T23:13:28.322Z,16.68
2023-01-07T23:16:00.233Z,16.66
2023-01-07T23:18:27.844Z,16.65
2023-01-07T23:20:55.424Z,16.66
2023-01-07T23:23:22.956Z,16.77
2023-01-07T23:25:51.638Z,16.70
2023-01-07T23:28:19.535Z,16.17
2023-01-07T23:30:46.927Z,16.50
2023-01-07T23:33:15.877Z,16.02
2023-01-07T23:35:43.341Z,15.75
2023-01-07T23:38:10.567Z,16.72
2023-01-07T23:40:37.999Z,16.59
2023-01-07T23:43:05.788Z,16.72
2023-01-07T23:45:32.793Z,16.68
2023-01-07T23:48:00.180Z,16.67
2023-01-07T23:50:28.870Z,16.59
2023-01-07T23:52:56.108Z,16.68
2023-01-07T23:55:23.450Z,16.51
2023-01-07T23:57:50.787Z,16.73
